createdAt,value
2019-05-18T00:00:53.522Z,12.66
2019-05-18T00:01:53.512Z,12.68
2019-05-18T00:02:53.502Z,12.62
2019-05-18T00:03:53.535Z,12.62
2019-05-18T00:04:53.494Z,12.65
2019-05-18T00:05:53.485Z,12.61
2019-05-18T00:06:53.454Z,12.53
2019-05-18T00:07:53.456Z,12.54
2019-05-18T00:08:53.428Z,12.50
2019-05-18T00:09:53.447Z,12.51
2019-05-18T00:10:53.412Z,12.50
2019-05-18T00:11:53.401Z,12.48
2019-05-18T00:12:53.385Z,12.44
2019-05-18T00:13:53.376Z,12.47
2019-05-18T00:14:53.362Z,12.47
2019-05-18T00:15:53.375Z,12.50
2019-05-18T00:16:53.341Z,12.44
2019-05-18T00:17:53.341Z,12.40
2019-05-18T00:18:53.339Z,12.32
2019-05-18T00:19:53.320Z,12.30
2019-05-18T00:20:53.309Z,12.32
2019-05-18T00:21:53.285Z,12.25
2019-05-18T00:22:53.280Z,12.23
2019-05-18T00:23:53.263Z,12.21
2019-05-18T00:24:53.254Z,12.25
2019-05-18T00:25:53.661Z,12.15
2019-05-18T00:26:53.232Z,12.10
2019-05-18T00:27:53.219Z,12.17
2019-05-18T00:28:53.231Z,12.18
2019-05-18T00:29:53.208Z,12.05
2019-05-18T00:30:53.220Z,12.15
2019-05-18T00:31:53.174Z,12.03
2019-05-18T00:32:53.173Z,12.07
2019-05-18T00:33:53.168Z,12.05
2019-05-18T00:34:53.141Z,11.97
2019-05-18T00:35:53.149Z,11.96
2019-05-18T00:36:53.143Z,12.00
2019-05-18T00:37:53.105Z,11.93
2019-05-18T00:38:53.109Z,11.97
2019-05-18T00:39:53.100Z,12.03
2019-05-18T00:40:53.083Z,11.97
2019-05-18T00:41:53.083Z,11.99
2019-05-18T00:42:53.082Z,11.93
2019-05-18T00:43:53.045Z,11.89
2019-05-18T00:44:53.035Z,11.88
2019-05-18T00:45:53.026Z,11.96
2019-05-18T00:46:53.034Z,11.82
2019-05-18T00:47:53.005Z,11.93
2019-05-18T00:48:52.991Z,11.84
2019-05-18T00:49:52.989Z,11.84
2019-05-18T00:50:52.969Z,11.88
2019-05-18T00:51:52.979Z,11.82
2019-05-18T00:52:52.947Z,11.77
2019-05-18T00:53:52.932Z,11.74
2019-05-18T00:54:52.933Z,11.76
2019-05-18T00:55:52.977Z,11.80
2019-05-18T00:56:52.918Z,11.74
2019-05-18T00:57:52.891Z,11.76
2019-05-18T00:58:52.889Z,11.80
2019-05-18T00:59:52.872Z,11.79
2019-05-18T01:00:52.870Z,11.73
2019-05-18T01:01:52.864Z,11.77
2019-05-18T01:02:52.859Z,11.77
2019-05-18T01:03:52.839Z,11.80
2019-05-18T01:04:52.819Z,11.77
2019-05-18T01:05:52.810Z,11.77
2019-05-18T01:06:52.823Z,11.79
2019-05-18T01:07:52.792Z,11.80
2019-05-18T01:08:52.772Z,11.79
2019-05-18T01:09:52.756Z,11.79
2019-05-18T01:10:52.760Z,11.71
2019-05-18T01:11:52.734Z,11.77
2019-05-18T01:12:52.742Z,11.74
2019-05-18T01:13:52.712Z,11.74
2019-05-18T01:14:52.709Z,11.80
2019-05-18T01:15:52.696Z,11.79
2019-05-18T01:16:52.686Z,11.82
2019-05-18T01:17:57.467Z,11.80
2019-05-18T01:18:53.660Z,11.71
2019-05-18T01:19:52.652Z,11.82
2019-05-18T01:20:52.634Z,11.74
2019-05-18T01:21:52.723Z,11.74
2019-05-18T01:22:52.633Z,11.79
2019-05-18T01:23:52.611Z,11.79
2019-05-18T01:24:52.627Z,11.71
2019-05-18T01:25:52.600Z,11.77
2019-05-18T01:26:52.592Z,11.69
2019-05-18T01:27:52.664Z,11.62
2019-05-18T01:28:52.558Z,11.64
2019-05-18T01:29:52.545Z,11.56
2019-05-18T01:30:52.532Z,11.66
2019-05-18T01:31:52.520Z,11.67
2019-05-18T01:32:52.529Z,11.55
2019-05-18T01:33:52.510Z,11.66
2019-05-18T01:34:52.505Z,11.55
2019-05-18T01:35:52.475Z,11.56
2019-05-18T01:36:52.461Z,11.52
2019-05-18T01:37:52.491Z,11.52
2019-05-18T01:38:52.450Z,11.56
2019-05-18T01:39:52.441Z,11.64
2019-05-18T01:40:52.418Z,11.67
2019-05-18T01:41:52.409Z,11.55
2019-05-18T01:42:52.438Z,11.58
2019-05-18T01:43:52.387Z,11.56
2019-05-18T01:44:52.394Z,11.62
2019-05-18T01:45:52.373Z,11.62
2019-05-18T01:46:52.361Z,11.49
2019-05-18T01:47:52.359Z,11.52
2019-05-18T01:48:52.332Z,11.48
2019-05-18T01:49:52.332Z,11.46
2019-05-18T01:50:52.320Z,11.54
2019-05-18T01:51:52.299Z,11.49
2019-05-18T01:52:52.320Z,11.48
2019-05-18T01:53:52.288Z,11.45
2019-05-18T01:54:52.271Z,11.48
2019-05-18T01:55:52.260Z,11.46
2019-05-18T01:56:52.252Z,11.41
2019-05-18T01:57:52.259Z,11.49
2019-05-18T01:58:52.225Z,11.43
2019-05-18T01:59:52.212Z,11.49
2019-05-18T02:00:52.205Z,11.55
2019-05-18T02:01:52.202Z,11.49
2019-05-18T02:02:52.195Z,11.52
2019-05-18T02:03:52.187Z,11.48
2019-05-18T02:04:52.206Z,11.43
2019-05-18T02:05:52.163Z,11.49
2019-05-18T02:06:52.163Z,11.46
2019-05-18T02:07:52.144Z,11.43
2019-05-18T02:08:52.122Z,11.40
2019-05-18T02:09:52.103Z,11.46
2019-05-18T02:10:52.111Z,11.43
2019-05-18T02:11:52.086Z,11.33
2019-05-18T02:12:52.090Z,11.45
2019-05-18T02:13:52.064Z,11.28
2019-05-18T02:14:52.065Z,11.31
2019-05-18T02:15:52.035Z,11.30
2019-05-18T02:16:52.046Z,11.16
2019-05-18T02:17:52.042Z,11.22
2019-05-18T02:18:52.010Z,11.19
2019-05-18T02:19:52.017Z,11.15
2019-05-18T02:20:51.988Z,11.23
2019-05-18T02:21:51.979Z,11.12
2019-05-18T02:22:51.960Z,11.18
2019-05-18T02:23:51.975Z,11.20
2019-05-18T02:24:51.959Z,11.18
2019-05-18T02:25:51.930Z,11.19
2019-05-18T02:26:51.925Z,11.09
2019-05-18T02:27:51.942Z,11.16
2019-05-18T02:28:51.909Z,11.03
2019-05-18T02:29:51.880Z,11.01
2019-05-18T02:30:51.884Z,11.12
2019-05-18T02:31:51.886Z,11.05
2019-05-18T02:32:51.857Z,11.04
2019-05-18T02:33:51.882Z,10.97
2019-05-18T02:34:51.835Z,11.04
2019-05-18T02:35:51.831Z,11.05
2019-05-18T02:36:51.827Z,11.05
2019-05-18T02:37:51.797Z,11.03
2019-05-18T02:38:51.805Z,10.97
2019-05-18T02:39:51.796Z,11.04
2019-05-18T02:40:51.765Z,10.95
2019-05-18T02:41:51.757Z,11.03
2019-05-18T02:42:51.747Z,11.03
2019-05-18T02:43:51.757Z,10.95
2019-05-18T02:44:51.724Z,11.08
2019-05-18T02:45:51.720Z,10.93
2019-05-18T02:46:51.712Z,11.01
2019-05-18T02:47:51.698Z,10.97
2019-05-18T02:48:51.708Z,11.08
2019-05-18T02:49:51.679Z,11.05
2019-05-18T02:50:51.664Z,11.13
2019-05-18T02:51:51.657Z,11.12
2019-05-18T02:52:51.651Z,11.13
2019-05-18T02:53:51.654Z,11.04
2019-05-18T02:54:51.617Z,11.03
2019-05-18T02:55:51.608Z,11.03
2019-05-18T02:56:51.598Z,10.90
2019-05-18T02:57:51.594Z,11.03
2019-05-18T02:58:51.590Z,11.08
2019-05-18T02:59:51.571Z,11.00
2019-05-18T03:00:51.563Z,11.11
2019-05-18T03:01:51.547Z,11.08
2019-05-18T03:02:51.542Z,11.05
2019-05-18T03:03:51.526Z,11.11
2019-05-18T03:04:51.526Z,11.04
2019-05-18T03:05:51.509Z,11.03
2019-05-18T03:06:51.573Z,11.04
2019-05-18T03:07:51.472Z,10.98
2019-05-18T03:08:51.485Z,11.03
2019-05-18T03:09:51.455Z,11.04
2019-05-18T03:10:51.456Z,11.01
2019-05-18T03:11:51.439Z,11.04
2019-05-18T03:12:51.423Z,11.11
2019-05-18T03:13:51.433Z,11.00
2019-05-18T03:14:51.396Z,11.03
2019-05-18T03:15:51.391Z,11.03
2019-05-18T03:16:51.383Z,11.04
2019-05-18T03:17:51.374Z,11.04
2019-05-18T03:19:06.788Z,11.08
2019-05-18T03:19:52.357Z,11.04
2019-05-18T03:20:51.325Z,11.08
2019-05-18T03:21:51.326Z,10.94
2019-05-18T03:22:51.319Z,10.97
2019-05-18T03:23:51.310Z,10.91
2019-05-18T03:24:51.296Z,11.00
2019-05-18T03:25:51.276Z,10.91
2019-05-18T03:26:51.263Z,11.05
2019-05-18T03:27:51.261Z,10.94
2019-05-18T03:28:51.263Z,10.98
2019-05-18T03:29:51.235Z,11.03
2019-05-18T03:30:51.220Z,11.11
2019-05-18T03:31:51.223Z,11.04
2019-05-18T03:32:51.344Z,11.11
2019-05-18T03:33:51.220Z,11.08
2019-05-18T03:34:51.176Z,11.11
2019-05-18T03:35:51.193Z,11.12
2019-05-18T03:36:51.153Z,11.03
2019-05-18T03:37:51.151Z,11.03
2019-05-18T03:38:51.150Z,11.12
2019-05-18T03:39:51.118Z,11.25
2019-05-18T03:40:51.127Z,11.13
2019-05-18T03:41:51.096Z,11.13
2019-05-18T03:42:51.087Z,11.25
2019-05-18T03:43:51.097Z,11.16
2019-05-18T03:44:51.074Z,11.20
2019-05-18T03:45:51.067Z,11.16
2019-05-18T03:46:51.045Z,11.15
2019-05-18T03:47:51.036Z,11.12
2019-05-18T03:48:51.057Z,11.20
2019-05-18T03:49:51.018Z,11.20
2019-05-18T03:50:51.011Z,11.27
2019-05-18T03:51:50.999Z,11.31
2019-05-18T03:52:51.007Z,11.38
2019-05-18T03:53:51.008Z,11.38
2019-05-18T03:54:50.967Z,11.37
2019-05-18T03:55:50.964Z,11.49
2019-05-18T03:56:50.949Z,11.48
2019-05-18T03:57:50.932Z,11.49
2019-05-18T03:58:50.941Z,11.56
2019-05-18T03:59:50.913Z,11.55
2019-05-18T04:00:50.888Z,11.51
2019-05-18T04:01:50.887Z,11.46
2019-05-18T04:02:50.891Z,11.62
2019-05-18T04:03:50.875Z,11.59
2019-05-18T04:04:50.854Z,11.61
2019-05-18T04:05:50.841Z,11.77
2019-05-18T04:06:50.828Z,11.69
2019-05-18T04:07:50.823Z,11.82
2019-05-18T04:08:50.856Z,11.77
2019-05-18T04:09:50.807Z,11.88
2019-05-18T04:10:50.785Z,11.79
2019-05-18T04:11:50.779Z,11.96
2019-05-18T04:12:50.763Z,11.88
2019-05-18T04:13:50.771Z,11.88
2019-05-18T04:14:50.733Z,11.91
2019-05-18T04:15:50.746Z,11.99
2019-05-18T04:16:50.720Z,11.93
2019-05-18T04:17:50.706Z,12.03
2019-05-18T04:18:50.778Z,12.04
2019-05-18T04:19:50.682Z,12.13
2019-05-18T04:20:50.676Z,12.13
2019-05-18T04:21:50.668Z,12.18
2019-05-18T04:22:50.659Z,12.23
2019-05-18T04:23:50.682Z,12.23
2019-05-18T04:24:50.636Z,12.22
2019-05-18T04:25:50.618Z,12.30
2019-05-18T04:26:50.682Z,12.28
2019-05-18T04:27:50.606Z,12.40
2019-05-18T04:28:50.590Z,12.36
2019-05-18T04:29:50.597Z,12.40
2019-05-18T04:30:50.575Z,12.38
2019-05-18T04:31:50.564Z,12.50
2019-05-18T04:32:50.551Z,12.48
2019-05-18T04:33:50.536Z,12.51
2019-05-18T04:34:50.540Z,12.59
2019-05-18T04:35:50.540Z,12.58
2019-05-18T04:36:50.516Z,12.62
2019-05-18T04:37:50.508Z,12.55
2019-05-18T04:38:50.493Z,12.72
2019-05-18T04:39:50.490Z,12.76
2019-05-18T04:40:50.461Z,12.72
2019-05-18T04:41:50.459Z,12.79
2019-05-18T04:42:50.458Z,12.81
2019-05-18T04:43:50.435Z,12.88
2019-05-18T04:44:50.432Z,12.95
2019-05-18T04:45:50.433Z,12.99
2019-05-18T04:46:50.394Z,13.13
2019-05-18T04:47:50.396Z,13.16
2019-05-18T04:48:50.385Z,13.32
2019-05-18T04:50:04.451Z,13.60
2019-05-18T04:50:51.356Z,13.68
2019-05-18T04:51:50.343Z,13.80
2019-05-18T04:52:50.330Z,13.90
2019-05-18T04:53:50.329Z,13.90
2019-05-18T04:54:50.339Z,13.86
2019-05-18T04:55:50.298Z,13.91
2019-05-18T04:56:50.286Z,14.01
2019-05-18T04:57:50.285Z,13.98
2019-05-18T04:58:50.267Z,13.96
2019-05-18T04:59:50.275Z,14.01
2019-05-18T05:00:50.235Z,14.00
2019-05-18T05:01:50.240Z,13.97
2019-05-18T05:02:50.271Z,13.98
2019-05-18T05:03:50.205Z,14.01
2019-05-18T05:04:53.937Z,14.00
2019-05-18T05:05:51.191Z,13.93
2019-05-18T05:06:50.177Z,13.96
2019-05-18T05:07:50.173Z,13.90
2019-05-18T05:08:50.200Z,13.88
2019-05-18T05:09:50.167Z,13.90
2019-05-18T05:10:50.136Z,13.85
2019-05-18T05:11:50.135Z,13.78
2019-05-18T05:12:50.110Z,13.76
2019-05-18T05:13:50.096Z,13.68
2019-05-18T05:14:50.099Z,13.78
2019-05-18T05:15:50.082Z,13.72
2019-05-18T05:16:50.078Z,13.73
2019-05-18T05:17:50.056Z,13.72
2019-05-18T05:18:50.053Z,13.83
2019-05-18T05:19:50.084Z,13.85
2019-05-18T05:20:50.022Z,14.09
2019-05-18T05:21:50.008Z,14.23
2019-05-18T05:22:50.004Z,14.44
2019-05-18T05:23:49.998Z,14.59
2019-05-18T05:24:50.016Z,14.93
2019-05-18T05:25:49.971Z,15.22
2019-05-18T05:26:49.967Z,15.32
2019-05-18T05:27:49.967Z,15.59
2019-05-18T05:28:49.932Z,15.77
2019-05-18T05:29:49.932Z,16.00
2019-05-18T05:30:49.914Z,16.26
2019-05-18T05:31:49.909Z,16.55
2019-05-18T05:32:49.890Z,16.70
2019-05-18T05:33:49.882Z,16.92
2019-05-18T05:34:49.885Z,17.10
2019-05-18T05:35:49.866Z,17.45
2019-05-18T05:36:49.846Z,17.50
2019-05-18T05:37:49.834Z,17.79
2019-05-18T05:38:49.826Z,17.93
2019-05-18T05:39:49.830Z,18.12
2019-05-18T05:40:49.803Z,18.30
2019-05-18T05:41:49.792Z,18.48
2019-05-18T05:42:49.782Z,18.66
2019-05-18T05:43:49.786Z,18.86
2019-05-18T05:44:49.765Z,19.07
2019-05-18T05:45:49.751Z,19.31
2019-05-18T05:46:49.743Z,19.37
2019-05-18T05:47:49.724Z,19.56
2019-05-18T05:48:49.713Z,19.71
2019-05-18T05:49:49.717Z,19.97
2019-05-18T05:50:49.694Z,20.15
2019-05-18T05:51:49.699Z,20.36
2019-05-18T05:52:49.669Z,20.42
2019-05-18T05:53:49.662Z,20.55
2019-05-18T05:54:49.667Z,20.65
2019-05-18T05:55:49.643Z,20.75
2019-05-18T05:56:49.633Z,20.97
2019-05-18T05:57:49.619Z,21.18
2019-05-18T05:58:49.611Z,21.34
2019-05-18T05:59:49.611Z,21.47
2019-05-18T06:00:49.591Z,21.47
2019-05-18T06:01:49.574Z,21.48
2019-05-18T06:02:49.575Z,21.65
2019-05-18T06:03:49.553Z,21.59
2019-05-18T06:04:49.559Z,21.71
2019-05-18T06:05:49.591Z,21.82
2019-05-18T06:06:49.521Z,21.94
2019-05-18T06:07:49.509Z,21.97
2019-05-18T06:08:49.514Z,22.13
2019-05-18T06:09:49.503Z,22.28
2019-05-18T06:10:49.477Z,22.33
2019-05-18T06:11:49.483Z,22.49
2019-05-18T06:12:49.453Z,22.51
2019-05-18T06:13:49.443Z,22.66
2019-05-18T06:14:49.451Z,22.85
2019-05-18T06:15:49.431Z,22.85
2019-05-18T06:16:49.419Z,23.15
2019-05-18T06:17:49.399Z,23.18
2019-05-18T06:18:49.457Z,23.33
2019-05-18T06:19:49.389Z,23.49
2019-05-18T06:20:51.886Z,23.59
2019-05-18T06:21:49.358Z,23.59
2019-05-18T06:22:49.347Z,23.76
2019-05-18T06:23:49.338Z,23.71
2019-05-18T06:24:49.388Z,23.84
2019-05-18T06:25:49.316Z,24.00
2019-05-18T06:26:49.305Z,24.21
2019-05-18T06:27:49.292Z,24.38
2019-05-18T06:28:49.295Z,24.43
2019-05-18T06:29:49.271Z,24.53
2019-05-18T06:30:49.273Z,24.52
2019-05-18T06:31:49.261Z,24.76
2019-05-18T06:32:49.240Z,24.75
2019-05-18T06:33:49.228Z,24.74
2019-05-18T06:34:49.215Z,24.82
2019-05-18T06:35:49.218Z,24.86
2019-05-18T06:36:49.196Z,24.86
2019-05-18T06:37:49.183Z,25.04
2019-05-18T06:38:49.172Z,25.08
2019-05-18T06:39:49.164Z,25.15
2019-05-18T06:40:49.168Z,25.22
2019-05-18T06:41:49.142Z,25.28
2019-05-18T06:42:49.134Z,25.27
2019-05-18T06:43:49.122Z,25.28
2019-05-18T06:44:49.114Z,25.40
2019-05-18T06:45:49.118Z,25.46
2019-05-18T06:46:49.090Z,25.66
2019-05-18T06:47:49.096Z,25.82
2019-05-18T06:48:49.070Z,25.78
2019-05-18T06:49:49.062Z,25.83
2019-05-18T06:50:49.074Z,25.93
2019-05-18T06:51:49.042Z,26.04
2019-05-18T06:52:49.029Z,26.11
2019-05-18T06:53:49.018Z,26.12
2019-05-18T06:54:49.010Z,26.23
2019-05-18T06:55:49.011Z,26.41
2019-05-18T06:56:48.986Z,26.56
2019-05-18T06:57:48.977Z,26.63
2019-05-18T06:58:48.970Z,26.80
2019-05-18T06:59:48.956Z,26.78
2019-05-18T07:00:48.966Z,26.80
2019-05-18T07:01:48.934Z,26.83
2019-05-18T07:02:48.923Z,27.01
2019-05-18T07:03:48.922Z,27.15
2019-05-18T07:04:48.902Z,27.31
2019-05-18T07:05:48.888Z,27.38
2019-05-18T07:06:48.897Z,27.41
2019-05-18T07:07:48.870Z,27.57
2019-05-18T07:08:48.862Z,27.57
2019-05-18T07:09:48.858Z,27.64
2019-05-18T07:10:48.840Z,27.73
2019-05-18T07:11:48.851Z,27.70
2019-05-18T07:12:48.822Z,27.78
2019-05-18T07:13:48.809Z,27.79
2019-05-18T07:14:48.797Z,27.80
2019-05-18T07:15:48.790Z,28.01
2019-05-18T07:16:48.790Z,28.19
2019-05-18T07:17:48.766Z,28.22
2019-05-18T07:18:48.757Z,28.37
2019-05-18T07:19:48.742Z,28.37
2019-05-18T07:20:48.736Z,28.52
2019-05-18T07:21:48.737Z,28.62
2019-05-18T07:22:48.711Z,28.74
2019-05-18T07:23:48.701Z,28.79
2019-05-18T07:24:48.691Z,28.83
2019-05-18T07:25:48.684Z,28.91
2019-05-18T07:26:48.693Z,28.96
2019-05-18T07:27:48.663Z,29.10
2019-05-18T07:28:48.652Z,29.13
2019-05-18T07:29:48.640Z,29.25
2019-05-18T07:30:48.629Z,29.33
2019-05-18T07:31:48.636Z,29.39
2019-05-18T07:32:48.612Z,29.37
2019-05-18T07:33:48.601Z,29.52
2019-05-18T07:34:48.589Z,29.50
2019-05-18T07:35:48.583Z,29.74
2019-05-18T07:36:48.585Z,29.95
2019-05-18T07:37:48.577Z,30.07
2019-05-18T07:38:49.185Z,30.18
2019-05-18T07:39:48.544Z,30.15
2019-05-18T07:40:48.530Z,30.24
2019-05-18T07:41:48.535Z,30.24
2019-05-18T07:42:48.519Z,30.36
2019-05-18T07:43:48.501Z,30.39
2019-05-18T07:44:48.488Z,30.29
2019-05-18T07:45:48.479Z,30.36
2019-05-18T07:46:48.484Z,30.53
2019-05-18T07:47:48.458Z,30.39
2019-05-18T07:48:48.456Z,30.39
2019-05-18T07:49:48.435Z,30.37
2019-05-18T07:50:48.426Z,30.36
2019-05-18T07:51:48.432Z,30.40
2019-05-18T07:52:48.408Z,30.52
2019-05-18T07:53:48.393Z,30.52
2019-05-18T07:54:48.385Z,30.58
2019-05-18T07:55:48.374Z,30.55
2019-05-18T07:56:48.372Z,30.37
2019-05-18T07:57:48.353Z,30.21
2019-05-18T07:58:48.342Z,30.17
2019-05-18T07:59:48.332Z,30.07
2019-05-18T08:00:48.321Z,30.22
2019-05-18T08:01:48.333Z,30.13
2019-05-18T08:02:48.300Z,30.18
2019-05-18T08:03:48.291Z,30.26
2019-05-18T08:04:48.280Z,30.22
2019-05-18T08:05:48.268Z,30.35
2019-05-18T08:06:48.265Z,30.26
2019-05-18T08:07:48.260Z,30.21
2019-05-18T08:08:48.258Z,30.18
2019-05-18T08:09:48.228Z,30.15
2019-05-18T08:10:48.215Z,30.08
2019-05-18T08:11:48.209Z,29.89
2019-05-18T08:12:48.216Z,29.76
2019-05-18T08:13:48.184Z,29.62
2019-05-18T08:14:48.174Z,29.61
2019-05-18T08:15:48.296Z,29.37
2019-05-18T08:16:48.150Z,29.09
2019-05-18T08:17:48.167Z,28.87
2019-05-18T08:18:48.136Z,28.57
2019-05-18T08:19:48.124Z,28.31
2019-05-18T08:20:48.112Z,28.19
2019-05-18T08:21:53.353Z,27.78
2019-05-18T08:22:49.116Z,27.50
2019-05-18T08:23:48.094Z,27.26
2019-05-18T08:24:48.074Z,26.98
2019-05-18T08:25:48.064Z,26.85
2019-05-18T08:26:48.048Z,26.68
2019-05-18T08:27:48.038Z,26.48
2019-05-18T08:28:48.046Z,26.34
2019-05-18T08:29:48.016Z,26.19
2019-05-18T08:30:48.007Z,25.85
2019-05-18T08:31:47.995Z,25.71
2019-05-18T08:32:47.984Z,25.53
2019-05-18T08:33:47.990Z,25.38
2019-05-18T08:34:47.963Z,25.14
2019-05-18T08:35:47.971Z,25.01
2019-05-18T08:36:47.940Z,24.97
2019-05-18T08:37:47.930Z,24.97
2019-05-18T08:38:47.938Z,24.82
2019-05-18T08:39:47.919Z,24.75
2019-05-18T08:40:47.901Z,24.58
2019-05-18T08:41:48.802Z,24.48
2019-05-18T08:42:47.873Z,24.52
2019-05-18T08:43:47.883Z,24.41
2019-05-18T08:44:47.853Z,24.56
2019-05-18T08:45:47.845Z,24.59
2019-05-18T08:46:47.844Z,24.68
2019-05-18T08:47:47.828Z,24.66
2019-05-18T08:48:47.826Z,24.51
2019-05-18T08:49:47.797Z,24.52
2019-05-18T08:50:47.806Z,24.55
2019-05-18T08:51:47.781Z,24.71
2019-05-18T08:52:47.771Z,24.60
2019-05-18T08:53:47.776Z,24.58
2019-05-18T08:54:47.747Z,24.66
2019-05-18T08:55:47.736Z,24.71
2019-05-18T08:56:47.723Z,24.65
2019-05-18T08:57:47.711Z,24.45
2019-05-18T08:58:47.725Z,24.41
2019-05-18T08:59:47.691Z,24.34
2019-05-18T09:00:47.679Z,24.15
2019-05-18T09:01:47.718Z,24.04
2019-05-18T09:02:47.657Z,24.04
2019-05-18T09:03:47.650Z,23.91
2019-05-18T09:04:47.645Z,23.89
2019-05-18T09:05:47.625Z,23.76
2019-05-18T09:06:47.610Z,23.69
2019-05-18T09:07:47.607Z,23.63
2019-05-18T09:08:47.610Z,23.67
2019-05-18T09:09:47.608Z,23.59
2019-05-18T09:10:47.565Z,23.49
2019-05-18T09:11:47.569Z,23.54
2019-05-18T09:12:47.546Z,23.51
2019-05-18T09:13:47.540Z,23.46
2019-05-18T09:14:47.556Z,23.48
2019-05-18T09:15:47.514Z,23.42
2019-05-18T09:16:47.506Z,23.45
2019-05-18T09:17:47.499Z,23.49
2019-05-18T09:18:47.491Z,23.33
2019-05-18T09:19:47.487Z,23.36
2019-05-18T09:20:47.460Z,23.31
2019-05-18T09:21:47.450Z,23.29
2019-05-18T09:22:47.446Z,23.28
2019-05-18T09:23:47.437Z,23.23
2019-05-18T09:24:47.435Z,23.31
2019-05-18T09:25:47.409Z,23.31
2019-05-18T09:26:47.411Z,23.23
2019-05-18T09:27:47.383Z,23.21
2019-05-18T09:28:47.373Z,23.18
2019-05-18T09:29:47.384Z,23.17
2019-05-18T09:30:47.355Z,23.15
2019-05-18T09:31:47.342Z,23.14
2019-05-18T09:32:47.338Z,23.17
2019-05-18T09:33:47.319Z,23.22
2019-05-18T09:34:47.329Z,23.28
2019-05-18T09:35:47.318Z,23.25
2019-05-18T09:36:47.292Z,23.44
2019-05-18T09:37:47.280Z,23.37
2019-05-18T09:38:47.280Z,23.33
2019-05-18T09:39:47.266Z,23.36
2019-05-18T09:40:47.256Z,23.44
2019-05-18T09:41:47.243Z,23.44
2019-05-18T09:42:47.218Z,23.59
2019-05-18T09:43:47.211Z,23.45
2019-05-18T09:44:47.220Z,23.45
2019-05-18T09:45:47.191Z,23.44
2019-05-18T09:46:47.184Z,23.41
2019-05-18T09:47:47.168Z,23.42
2019-05-18T09:48:47.156Z,23.26
2019-05-18T09:49:47.159Z,23.36
2019-05-18T09:50:47.135Z,23.36
2019-05-18T09:51:47.126Z,23.29
2019-05-18T09:52:47.118Z,23.44
2019-05-18T09:53:51.553Z,23.37
2019-05-18T09:54:47.122Z,23.39
2019-05-18T09:55:47.088Z,23.42
2019-05-18T09:56:47.068Z,23.37
2019-05-18T09:57:47.067Z,23.46
2019-05-18T09:58:47.048Z,23.46
2019-05-18T09:59:47.048Z,23.55
2019-05-18T10:00:47.044Z,23.48
2019-05-18T10:01:47.015Z,23.56
2019-05-18T10:02:47.005Z,23.71
2019-05-18T10:03:46.997Z,23.70
2019-05-18T10:04:46.983Z,23.84
2019-05-18T10:05:46.991Z,23.73
2019-05-18T10:06:46.962Z,23.82
2019-05-18T10:07:47.008Z,23.81
2019-05-18T10:08:46.942Z,24.04
2019-05-18T10:09:46.994Z,24.03
2019-05-18T10:10:46.949Z,24.03
2019-05-18T10:11:46.917Z,24.07
2019-05-18T10:12:46.903Z,24.13
2019-05-18T10:13:46.888Z,24.16
2019-05-18T10:14:46.877Z,24.21
2019-05-18T10:15:46.879Z,24.21
2019-05-18T10:16:46.861Z,24.28
2019-05-18T10:17:46.839Z,24.29
2019-05-18T10:18:46.835Z,24.36
2019-05-18T10:19:46.828Z,24.44
2019-05-18T10:20:46.829Z,24.52
2019-05-18T10:21:46.801Z,24.62
2019-05-18T10:22:58.990Z,24.62
2019-05-18T10:23:47.777Z,24.76
2019-05-18T10:24:46.779Z,24.81
2019-05-18T10:25:46.769Z,24.86
2019-05-18T10:26:46.743Z,24.99
2019-05-18T10:27:46.733Z,25.08
2019-05-18T10:28:46.721Z,25.21
2019-05-18T10:29:46.866Z,25.31
2019-05-18T10:30:46.713Z,25.41
2019-05-18T10:31:46.684Z,25.67
2019-05-18T10:32:46.678Z,26.10
2019-05-18T10:33:46.718Z,26.39
2019-05-18T10:34:46.664Z,26.64
2019-05-18T10:35:46.660Z,26.94
2019-05-18T10:36:46.635Z,27.05
2019-05-18T10:37:46.623Z,27.32
2019-05-18T10:38:46.608Z,27.50
2019-05-18T10:39:46.606Z,27.72
2019-05-18T10:40:46.610Z,27.90
2019-05-18T10:41:46.579Z,28.01
2019-05-18T10:42:46.568Z,28.16
2019-05-18T10:43:46.951Z,28.37
2019-05-18T10:44:46.550Z,28.62
2019-05-18T10:45:46.557Z,29.07
2019-05-18T10:46:46.526Z,29.33
2019-05-18T10:47:46.517Z,29.34
2019-05-18T10:48:46.506Z,29.55
2019-05-18T10:49:46.495Z,29.74
2019-05-18T10:50:46.507Z,29.92
2019-05-18T10:51:46.477Z,29.95
2019-05-18T10:52:46.462Z,30.07
2019-05-18T10:53:46.452Z,30.18
2019-05-18T10:54:46.440Z,30.40
2019-05-18T10:55:46.460Z,30.64
2019-05-18T10:56:46.423Z,30.85
2019-05-18T10:57:46.414Z,31.38
2019-05-18T10:58:46.416Z,31.30
2019-05-18T10:59:46.386Z,31.10
2019-05-18T11:00:46.382Z,31.33
2019-05-18T11:01:46.392Z,31.82
2019-05-18T11:02:46.358Z,32.27
2019-05-18T11:03:46.348Z,32.28
2019-05-18T11:04:46.340Z,32.72
2019-05-18T11:05:46.332Z,33.03
2019-05-18T11:06:46.330Z,33.35
2019-05-18T11:07:46.310Z,33.41
2019-05-18T11:08:46.298Z,33.85
2019-05-18T11:09:46.293Z,34.40
2019-05-18T11:10:46.279Z,34.98
2019-05-18T11:11:46.281Z,35.32
2019-05-18T11:12:46.254Z,35.56
2019-05-18T11:13:46.251Z,35.61
2019-05-18T11:14:46.247Z,35.44
2019-05-18T11:15:46.225Z,35.56
2019-05-18T11:16:46.231Z,35.53
2019-05-18T11:17:46.208Z,35.69
2019-05-18T11:18:46.193Z,35.77
2019-05-18T11:19:46.181Z,35.66
2019-05-18T11:20:46.177Z,36.04
2019-05-18T11:21:46.179Z,36.44
2019-05-18T11:22:46.160Z,36.78
2019-05-18T11:23:48.124Z,36.22
2019-05-18T11:24:46.134Z,36.17
2019-05-18T11:25:46.129Z,36.57
2019-05-18T11:26:46.127Z,36.88
2019-05-18T11:27:46.107Z,36.40
2019-05-18T11:28:46.097Z,36.63
2019-05-18T11:29:46.083Z,36.78
2019-05-18T11:30:46.071Z,37.17
2019-05-18T11:31:46.077Z,37.54
2019-05-18T11:32:46.053Z,37.88
2019-05-18T11:33:46.045Z,37.44
2019-05-18T11:34:46.035Z,36.61
2019-05-18T11:35:46.020Z,35.98
2019-05-18T11:36:46.027Z,35.44
2019-05-18T11:37:46.003Z,35.01
2019-05-18T11:38:45.995Z,34.47
2019-05-18T11:39:45.983Z,34.06
2019-05-18T11:40:45.973Z,33.58
2019-05-18T11:41:45.979Z,33.41
2019-05-18T11:42:45.956Z,34.16
2019-05-18T11:43:45.941Z,34.44
2019-05-18T11:44:45.943Z,34.30
2019-05-18T11:45:45.920Z,33.97
2019-05-18T11:46:45.961Z,33.47
2019-05-18T11:47:45.900Z,33.01
2019-05-18T11:48:45.894Z,32.90
2019-05-18T11:49:45.881Z,33.47
2019-05-18T11:50:45.870Z,34.03
2019-05-18T11:51:45.861Z,34.73
2019-05-18T11:52:45.867Z,35.44
2019-05-18T11:53:57.491Z,36.13
2019-05-18T11:54:46.828Z,36.67
2019-05-18T11:55:45.825Z,37.08
2019-05-18T11:56:45.813Z,37.62
2019-05-18T11:57:45.830Z,38.25
2019-05-18T11:58:45.791Z,38.85
2019-05-18T11:59:45.780Z,38.70
2019-05-18T12:00:45.780Z,39.09
2019-05-18T12:01:45.766Z,38.85
2019-05-18T12:02:45.764Z,39.72
2019-05-18T12:03:45.742Z,40.28
2019-05-18T12:04:48.655Z,39.84
2019-05-18T12:05:45.722Z,39.82
2019-05-18T12:06:45.714Z,40.28
2019-05-18T12:07:45.717Z,40.75
2019-05-18T12:08:45.698Z,40.92
2019-05-18T12:09:45.684Z,40.40
2019-05-18T12:10:45.676Z,39.77
2019-05-18T12:11:45.670Z,39.67
2019-05-18T12:12:45.686Z,38.97
2019-05-18T12:13:45.644Z,39.26
2019-05-18T12:14:45.637Z,38.47
2019-05-18T12:15:45.624Z,38.02
2019-05-18T12:16:45.620Z,37.49
2019-05-18T12:17:45.602Z,37.04
2019-05-18T12:18:45.694Z,36.45
2019-05-18T12:19:45.586Z,36.20
2019-05-18T12:20:45.571Z,36.20
2019-05-18T12:21:45.566Z,36.32
2019-05-18T12:22:45.558Z,37.00
2019-05-18T12:23:45.555Z,37.64
2019-05-18T12:24:45.538Z,37.87
2019-05-18T12:25:45.525Z,37.64
2019-05-18T12:26:45.518Z,37.19
2019-05-18T12:27:45.542Z,36.27
2019-05-18T12:28:45.519Z,36.60
2019-05-18T12:29:45.488Z,36.61
2019-05-18T12:30:45.477Z,36.13
2019-05-18T12:31:45.466Z,35.66
2019-05-18T12:32:45.454Z,35.12
2019-05-18T12:33:45.463Z,34.62
2019-05-18T12:34:45.573Z,34.22
2019-05-18T12:35:45.424Z,34.13
2019-05-18T12:36:45.413Z,34.53
2019-05-18T12:37:45.412Z,34.06
2019-05-18T12:38:45.406Z,33.62
2019-05-18T12:39:45.389Z,33.13
2019-05-18T12:40:45.379Z,33.29
2019-05-18T12:41:45.387Z,32.94
2019-05-18T12:42:45.355Z,32.41
2019-05-18T12:43:45.375Z,32.01
2019-05-18T12:44:45.333Z,31.60
2019-05-18T12:45:45.331Z,31.17
2019-05-18T12:46:45.334Z,30.73
2019-05-18T12:47:45.310Z,30.30
2019-05-18T12:48:45.295Z,30.11
2019-05-18T12:49:45.303Z,29.68
2019-05-18T12:50:45.274Z,29.33
2019-05-18T12:51:45.258Z,29.46
2019-05-18T12:52:45.251Z,29.24